createdAt,value
2022-12-08T00:00:06.717Z,7.20
2022-12-08T00:02:33.985Z,7.20
2022-12-08T00:05:19.726Z,7.20
2022-12-08T00:08:10.262Z,7.20
2022-12-08T00:10:48.828Z,7.20
2022-12-08T00:13:19.154Z,7.20
2022-12-08T00:16:00.725Z,7.20
2022-12-08T00:18:30.051Z,7.20
2022-12-08T00:20:58.030Z,7.20
2022-12-08T00:23:25.357Z,7.20
2022-12-08T00:25:52.910Z,7.20
2022-12-08T00:28:20.044Z,7.20
2022-12-08T00:30:47.186Z,7.20
2022-12-08T00:33:14.325Z,7.20
2022-12-08T00:35:43.872Z,7.20
2022-12-08T00:38:15.705Z,7.20
2022-12-08T00:40:46.464Z,7.20
2022-12-08T00:43:17.981Z,7.20
2022-12-08T00:45:45.161Z,7.20
2022-12-08T00:48:14.512Z,7.10
2022-12-08T00:50:43.830Z,7.10
2022-12-08T00:53:10.956Z,7.20
2022-12-08T00:55:45.069Z,7.10
2022-12-08T00:58:14.560Z,7.10
2022-12-08T01:00:44.312Z,7.10
2022-12-08T01:03:12.138Z,7.10
2022-12-08T01:05:42.030Z,7.10
2022-12-08T01:08:09.373Z,7.10
2022-12-08T01:10:37.601Z,7.10
2022-12-08T01:13:05.242Z,7.10
2022-12-08T01:15:39.319Z,7.00
2022-12-08T01:18:06.433Z,7.10
2022-12-08T01:20:33.516Z,7.00
2022-12-08T01:23:02.810Z,7.00
2022-12-08T01:25:33.854Z,7.00
2022-12-08T01:28:05.476Z,7.00
2022-12-08T01:30:32.765Z,7.00
2022-12-08T01:32:59.973Z,7.00
2022-12-08T01:35:29.465Z,7.00
2022-12-08T01:37:56.892Z,6.90
2022-12-08T01:40:24.014Z,6.90
2022-12-08T01:42:52.558Z,6.90
2022-12-08T01:45:28.810Z,6.80
2022-12-08T01:48:00.291Z,6.80
2022-12-08T01:50:28.518Z,6.80
2022-12-08T01:53:03.636Z,6.80
2022-12-08T01:55:39.387Z,6.70
2022-12-08T01:58:33.162Z,6.70
2022-12-08T02:01:00.408Z,6.70
2022-12-08T02:03:34.125Z,6.70
2022-12-08T02:06:02.785Z,6.60
2022-12-08T02:08:34.810Z,6.60
2022-12-08T02:11:01.972Z,6.60
2022-12-08T02:13:32.728Z,6.60
2022-12-08T02:16:17.581Z,6.50
2022-12-08T02:19:14.803Z,6.50
2022-12-08T02:21:52.952Z,6.50
2022-12-08T02:24:29.351Z,6.40
2022-12-08T02:27:08.437Z,6.40
2022-12-08T02:30:11.798Z,6.40
2022-12-08T02:33:11.144Z,6.40
2022-12-08T02:35:56.869Z,6.40
2022-12-08T02:38:53.814Z,6.40
2022-12-08T02:41:39.237Z,6.40
2022-12-08T02:44:27.643Z,6.30
2022-12-08T02:47:02.450Z,6.30
2022-12-08T02:49:32.644Z,6.30
2022-12-08T02:52:25.798Z,6.20
2022-12-08T02:54:55.918Z,6.20
2022-12-08T02:58:08.402Z,6.20
2022-12-08T03:00:58.504Z,6.20
2022-12-08T03:03:47.983Z,6.20
2022-12-08T03:06:51.086Z,6.20
2022-12-08T03:09:35.020Z,6.10
2022-12-08T03:12:15.922Z,6.10
2022-12-08T03:14:50.045Z,6.10
2022-12-08T03:17:20.493Z,6.10
2022-12-08T03:19:52.294Z,6.00
2022-12-08T03:22:25.427Z,6.00
2022-12-08T03:24:53.436Z,6.00
2022-12-08T03:27:28.410Z,6.00
2022-12-08T03:30:00.628Z,6.00
2022-12-08T03:32:40.720Z,6.00
2022-12-08T03:35:12.230Z,5.90
2022-12-08T03:37:42.785Z,5.90
2022-12-08T03:40:16.500Z,5.90
2022-12-08T03:42:43.652Z,5.90
2022-12-08T03:45:11.202Z,5.90
2022-12-08T03:47:40.340Z,5.80
2022-12-08T03:50:10.957Z,5.90
2022-12-08T03:52:38.236Z,5.80
2022-12-08T03:55:05.771Z,5.90
2022-12-08T03:57:32.908Z,5.90
2022-12-08T04:00:03.835Z,5.90
2022-12-08T04:02:31.315Z,6.00
2022-12-08T04:04:58.539Z,6.00
2022-12-08T04:07:25.686Z,6.00
2022-12-08T04:09:56.985Z,6.00
2022-12-08T04:12:24.091Z,6.00
2022-12-08T04:14:51.208Z,6.00
2022-12-08T04:17:18.339Z,6.00
2022-12-08T04:19:45.443Z,6.00
2022-12-08T04:22:14.925Z,6.00
2022-12-08T04:24:44.230Z,6.00
2022-12-08T04:27:17.869Z,6.10
2022-12-08T04:29:49.235Z,6.10
2022-12-08T04:32:16.334Z,6.10
2022-12-08T04:34:43.432Z,6.10
2022-12-08T04:37:10.654Z,6.10
2022-12-08T04:39:43.038Z,6.10
2022-12-08T04:42:10.128Z,6.10
2022-12-08T04:44:39.369Z,6.10
2022-12-08T04:47:06.535Z,6.10
2022-12-08T04:49:38.551Z,6.10
2022-12-08T04:52:05.784Z,6.10
2022-12-08T04:54:35.585Z,6.10
2022-12-08T04:57:02.694Z,6.10
2022-12-08T04:59:31.876Z,6.20
2022-12-08T05:02:01.363Z,6.20
2022-12-08T05:04:31.046Z,6.20
2022-12-08T05:07:00.432Z,6.20
2022-12-08T05:09:28.211Z,6.20
2022-12-08T05:11:59.944Z,6.30
2022-12-08T05:14:29.265Z,6.30
2022-12-08T05:16:58.569Z,6.30
2022-12-08T05:19:27.810Z,6.30
2022-12-08T05:21:54.919Z,6.30
2022-12-08T05:24:22.087Z,6.20
2022-12-08T05:26:51.804Z,6.20
2022-12-08T05:29:20.965Z,6.20
2022-12-08T05:31:48.324Z,6.20
2022-12-08T05:34:15.542Z,6.20
2022-12-08T05:36:45.149Z,6.20
2022-12-08T05:39:17.904Z,6.20
2022-12-08T05:41:47.288Z,6.20
2022-12-08T05:44:16.470Z,6.30
2022-12-08T05:46:45.939Z,6.30
2022-12-08T05:49:18.098Z,6.20
2022-12-08T05:51:47.515Z,6.30
2022-12-08T05:54:18.958Z,6.20
2022-12-08T05:56:46.094Z,6.20
2022-12-08T05:59:17.767Z,6.20
2022-12-08T06:01:44.943Z,6.20
2022-12-08T06:04:14.400Z,6.20
2022-12-08T06:06:41.476Z,6.20
2022-12-08T06:09:09.435Z,6.20
2022-12-08T06:11:38.686Z,6.20
2022-12-08T06:14:10.153Z,6.20
2022-12-08T06:16:39.732Z,6.20
2022-12-08T06:19:06.928Z,6.20
2022-12-08T06:21:36.714Z,6.20
2022-12-08T06:24:03.894Z,6.20
2022-12-08T06:26:33.535Z,6.20
2022-12-08T06:29:00.819Z,6.20
2022-12-08T06:31:30.685Z,6.20
2022-12-08T06:34:00.203Z,6.10
2022-12-08T06:36:32.091Z,6.20
2022-12-08T06:39:03.481Z,6.20
2022-12-08T06:41:55.663Z,6.20
2022-12-08T06:44:25.020Z,6.20
2022-12-08T06:46:54.572Z,6.10
2022-12-08T06:49:26.371Z,6.10
2022-12-08T06:51:55.533Z,6.10
2022-12-08T06:54:22.667Z,6.10
2022-12-08T06:56:52.138Z,6.10
2022-12-08T06:59:19.616Z,6.10
2022-12-08T07:01:49.085Z,6.10
2022-12-08T07:04:18.897Z,6.10
2022-12-08T07:06:46.026Z,6.10
2022-12-08T07:09:13.163Z,6.10
2022-12-08T07:11:42.540Z,6.00
2022-12-08T07:14:12.250Z,6.10
2022-12-08T07:16:39.598Z,6.00
2022-12-08T07:19:07.472Z,6.00
2022-12-08T07:21:34.581Z,6.00
2022-12-08T07:24:05.065Z,6.00
2022-12-08T07:26:32.952Z,6.00
2022-12-08T07:29:02.632Z,6.00
2022-12-08T07:31:34.484Z,6.00
2022-12-08T07:34:04.253Z,5.90
2022-12-08T07:36:36.150Z,5.90
2022-12-08T07:39:03.365Z,5.90
2022-12-08T07:41:33.482Z,5.90
2022-12-08T07:44:04.258Z,5.90
2022-12-08T07:46:31.627Z,5.90
2022-12-08T07:49:01.404Z,5.90
2022-12-08T07:51:28.562Z,5.90
2022-12-08T07:53:58.281Z,5.90
2022-12-08T07:56:25.405Z,5.90
2022-12-08T07:58:52.679Z,5.90
2022-12-08T08:01:33.029Z,5.90
2022-12-08T08:04:06.950Z,5.90
2022-12-08T08:06:38.015Z,5.90
2022-12-08T08:09:10.465Z,5.90
2022-12-08T08:11:37.646Z,5.90
2022-12-08T08:14:09.853Z,5.90
2022-12-08T08:16:42.031Z,5.90
2022-12-08T08:19:09.217Z,5.90
2022-12-08T08:21:45.443Z,5.90
2022-12-08T08:24:12.860Z,5.90
2022-12-08T08:26:44.780Z,5.90
2022-12-08T08:29:11.933Z,6.00
2022-12-08T08:31:43.508Z,6.00
2022-12-08T08:34:13.287Z,6.00
2022-12-08T08:36:42.880Z,6.00
2022-12-08T08:39:13.290Z,6.00
2022-12-08T08:41:41.402Z,6.00
2022-12-08T08:44:11.505Z,6.00
2022-12-08T08:46:38.741Z,6.10
2022-12-08T08:49:08.187Z,6.10
2022-12-08T08:51:39.958Z,6.10
2022-12-08T08:54:07.264Z,6.10
2022-12-08T08:56:37.753Z,6.10
2022-12-08T08:59:07.537Z,6.10
2022-12-08T09:01:34.894Z,6.10
2022-12-08T09:04:02.115Z,6.20
2022-12-08T09:06:29.517Z,6.20
2022-12-08T09:08:56.879Z,6.20
2022-12-08T09:11:26.522Z,6.10
2022-12-08T09:13:56.202Z,6.20
2022-12-08T09:16:24.252Z,6.20
2022-12-08T09:18:51.513Z,6.20
2022-12-08T09:21:23.516Z,6.20
2022-12-08T09:23:52.958Z,6.20
2022-12-08T09:26:22.575Z,6.20
2022-12-08T09:28:54.411Z,6.20
2022-12-08T09:31:24.861Z,6.20
2022-12-08T09:33:54.498Z,6.20
2022-12-08T09:36:21.727Z,6.20
2022-12-08T09:38:50.597Z,6.20
2022-12-08T09:41:30.749Z,6.30
2022-12-08T09:44:09.105Z,6.30
2022-12-08T09:46:39.405Z,6.30
2022-12-08T09:49:17.606Z,6.30
2022-12-08T09:51:47.407Z,6.30
2022-12-08T09:54:34.444Z,6.30
2022-12-08T09:57:13.282Z,6.30
2022-12-08T09:59:43.587Z,6.40
2022-12-08T10:02:29.780Z,6.30
2022-12-08T10:04:58.869Z,6.30
2022-12-08T10:07:30.778Z,6.30
2022-12-08T10:10:04.422Z,6.30
2022-12-08T10:13:00.625Z,6.30
2022-12-08T10:15:51.059Z,6.40
2022-12-08T10:18:23.125Z,6.40
2022-12-08T10:20:51.383Z,6.40
2022-12-08T10:23:36.937Z,6.40
2022-12-08T10:26:13.304Z,6.40
2022-12-08T10:28:44.681Z,6.40
2022-12-08T10:31:25.453Z,6.40
2022-12-08T10:34:09.914Z,6.50
2022-12-08T10:36:47.308Z,6.50
2022-12-08T10:39:43.725Z,6.50
2022-12-08T10:42:22.194Z,6.60
2022-12-08T10:45:01.345Z,6.60
2022-12-08T10:47:44.571Z,6.60
2022-12-08T10:50:20.808Z,6.60
2022-12-08T10:53:12.558Z,6.60
2022-12-08T10:55:46.175Z,6.70
2022-12-08T10:58:32.930Z,6.70
2022-12-08T11:01:18.159Z,6.60
2022-12-08T11:03:54.987Z,6.60
2022-12-08T11:06:32.876Z,6.60
2022-12-08T11:09:17.487Z,6.60
2022-12-08T11:11:47.437Z,6.60
2022-12-08T11:14:30.881Z,6.60
2022-12-08T11:17:08.225Z,6.60
2022-12-08T11:19:43.610Z,6.60
2022-12-08T11:22:36.767Z,6.60
2022-12-08T11:25:15.309Z,6.60
2022-12-08T11:27:44.669Z,6.60
2022-12-08T11:30:22.458Z,6.60
2022-12-08T11:32:56.299Z,6.60
2022-12-08T11:35:33.596Z,6.60
2022-12-08T11:38:27.668Z,6.60
2022-12-08T11:41:04.357Z,6.70
2022-12-08T11:43:34.140Z,6.80
2022-12-08T11:46:04.747Z,6.90
2022-12-08T11:48:36.596Z,6.90
2022-12-08T11:51:19.423Z,6.90
2022-12-08T11:54:15.760Z,7.00
2022-12-08T11:56:47.134Z,7.10
2022-12-08T11:59:28.172Z,7.10
2022-12-08T12:01:55.731Z,7.10
2022-12-08T12:04:33.205Z,7.10
2022-12-08T12:07:11.902Z,7.20
2022-12-08T12:09:58.173Z,7.20
2022-12-08T12:12:59.386Z,7.30
2022-12-08T12:15:55.394Z,7.30
2022-12-08T12:18:40.267Z,7.30
2022-12-08T12:21:25.761Z,7.40
2022-12-08T12:24:22.335Z,7.40
2022-12-08T12:27:28.889Z,7.50
2022-12-08T12:30:04.370Z,7.60
2022-12-08T12:32:55.768Z,7.60
2022-12-08T12:35:30.662Z,7.60
2022-12-08T12:38:40.481Z,7.60
2022-12-08T12:41:09.356Z,7.70
2022-12-08T12:43:38.448Z,7.70
2022-12-08T12:46:23.887Z,7.70
2022-12-08T12:48:55.300Z,7.80
2022-12-08T12:51:41.402Z,7.80
2022-12-08T12:54:26.898Z,7.80
2022-12-08T12:57:05.927Z,7.80
2022-12-08T12:59:44.363Z,7.80
2022-12-08T13:02:46.065Z,7.80
2022-12-08T13:05:26.889Z,7.80
2022-12-08T13:08:02.940Z,7.80
2022-12-08T13:10:36.150Z,7.80
2022-12-08T13:13:12.858Z,7.80
2022-12-08T13:15:41.734Z,7.90
2022-12-08T13:18:19.586Z,7.90
2022-12-08T13:20:51.753Z,7.90
2022-12-08T13:23:36.863Z,7.80
2022-12-08T13:26:28.029Z,7.80
2022-12-08T13:29:01.475Z,7.80
2022-12-08T13:31:45.071Z,7.80
2022-12-08T13:34:21.263Z,7.80
2022-12-08T13:37:11.193Z,7.90
2022-12-08T13:39:43.428Z,7.90
2022-12-08T13:42:19.381Z,7.90
2022-12-08T13:48:51.207Z,7.90
2022-12-08T13:57:34.494Z,7.90
2022-12-08T14:00:19.526Z,7.90
2022-12-08T14:02:49.971Z,7.90
2022-12-08T14:05:26.615Z,7.80
2022-12-08T14:08:01.926Z,7.90
2022-12-08T14:10:33.392Z,7.80
2022-12-08T14:13:05.448Z,7.80
2022-12-08T14:15:37.818Z,7.80
2022-12-08T14:18:21.185Z,7.80
2022-12-08T14:21:21.223Z,7.70
2022-12-08T14:23:49.301Z,7.70
2022-12-08T14:26:18.850Z,7.70
2022-12-08T14:28:46.039Z,7.60
2022-12-08T14:31:17.709Z,7.60
2022-12-08T14:33:44.969Z,7.50
2022-12-08T14:36:16.018Z,7.40
2022-12-08T14:38:43.223Z,7.30
2022-12-08T14:41:14.543Z,7.30
2022-12-08T14:43:46.167Z,7.20
2022-12-08T14:46:22.050Z,7.10
2022-12-08T14:48:49.216Z,7.00
2022-12-08T14:51:19.473Z,6.90
2022-12-08T14:54:09.093Z,6.90
2022-12-08T14:56:53.038Z,6.90
2022-12-08T14:59:31.746Z,6.90
2022-12-08T15:02:16.450Z,6.80
2022-12-08T15:04:49.883Z,6.90
2022-12-08T15:07:28.585Z,6.90
2022-12-08T15:10:38.003Z,6.90
2022-12-08T15:13:10.363Z,6.90
2022-12-08T15:15:57.785Z,6.80
2022-12-08T15:18:41.117Z,6.90
2022-12-08T15:21:12.849Z,6.80
2022-12-08T15:23:46.567Z,6.80
2022-12-08T15:26:23.094Z,6.80
2022-12-08T15:28:50.476Z,6.80
2022-12-08T15:31:18.648Z,6.80
2022-12-08T15:33:45.975Z,6.80
2022-12-08T15:36:15.682Z,6.80
2022-12-08T15:38:47.520Z,6.80
2022-12-08T15:41:19.374Z,6.80
2022-12-08T15:43:46.562Z,6.80
2022-12-08T15:46:13.714Z,6.70
2022-12-08T15:48:41.132Z,6.70
2022-12-08T15:51:08.468Z,6.70
2022-12-08T15:53:37.944Z,6.70
2022-12-08T15:59:00.411Z,6.70
2022-12-08T16:01:29.966Z,6.70
2022-12-08T16:04:59.883Z,6.70
2022-12-08T16:09:46.407Z,6.70
2022-12-08T16:13:40.388Z,6.70
2022-12-08T16:15:51.633Z,6.70
2022-12-08T16:18:24.952Z,6.60
2022-12-08T16:21:22.416Z,6.70
2022-12-08T16:23:43.560Z,6.70
2022-12-08T16:27:35.018Z,6.70
2022-12-08T16:29:18.592Z,6.70
2022-12-08T16:31:48.505Z,6.70
2022-12-08T16:34:17.831Z,6.70
2022-12-08T16:36:44.918Z,6.70
2022-12-08T16:39:15.574Z,6.70
2022-12-08T16:42:03.698Z,6.70
2022-12-08T16:44:30.825Z,6.70
2022-12-08T16:46:58.076Z,6.70
2022-12-08T16:49:27.253Z,6.70
2022-12-08T16:51:56.493Z,6.70
2022-12-08T16:54:23.695Z,6.70
2022-12-08T16:56:50.842Z,6.70
2022-12-08T16:59:24.774Z,6.70
2022-12-08T17:01:51.845Z,6.70
2022-12-08T17:04:37.166Z,6.70
2022-12-08T17:07:04.601Z,6.70
2022-12-08T17:09:34.811Z,6.70
2022-12-08T17:12:04.560Z,6.70
2022-12-08T17:14:35.498Z,6.70
2022-12-08T17:17:05.396Z,6.70
2022-12-08T17:19:35.376Z,6.70
2022-12-08T17:22:04.738Z,6.60
2022-12-08T17:24:33.992Z,6.60
2022-12-08T17:27:04.545Z,6.60
2022-12-08T17:29:33.159Z,6.60
2022-12-08T17:32:02.789Z,6.60
2022-12-08T17:34:34.997Z,6.60
2022-12-08T17:37:04.600Z,6.60
2022-12-08T17:39:31.759Z,6.50
2022-12-08T17:41:58.902Z,6.50
2022-12-08T17:44:28.247Z,6.40
2022-12-08T17:46:57.621Z,6.40
2022-12-08T17:49:25.872Z,6.40
2022-12-08T17:51:55.471Z,6.40
2022-12-08T17:54:25.448Z,6.30
2022-12-08T17:56:53.093Z,6.30
2022-12-08T17:59:22.581Z,6.30
2022-12-08T18:01:58.258Z,6.30
2022-12-08T18:04:28.106Z,6.30
2022-12-08T18:07:00.179Z,6.20
2022-12-08T18:09:30.514Z,6.20
2022-12-08T18:11:57.645Z,6.20
2022-12-08T18:14:25.274Z,6.20
2022-12-08T18:16:52.448Z,6.20
2022-12-08T18:19:22.262Z,6.10
2022-12-08T18:21:49.499Z,6.10
2022-12-08T18:24:26.439Z,6.00
2022-12-08T18:26:55.152Z,6.00
2022-12-08T18:29:23.063Z,6.00
2022-12-08T18:31:51.458Z,5.90
2022-12-08T18:34:21.484Z,5.90
2022-12-08T18:36:50.744Z,5.90
2022-12-08T18:39:31.765Z,5.80
2022-12-08T18:42:21.927Z,5.80
2022-12-08T18:44:51.521Z,5.80
2022-12-08T18:47:19.457Z,5.70
2022-12-08T18:49:46.553Z,5.70
2022-12-08T18:52:28.105Z,5.70
2022-12-08T18:55:08.597Z,5.70
2022-12-08T18:57:43.367Z,5.60
2022-12-08T19:00:15.599Z,5.60
2022-12-08T19:02:46.219Z,5.60
2022-12-08T19:05:14.111Z,5.50
2022-12-08T19:07:42.689Z,5.50
2022-12-08T19:10:13.216Z,5.50
2022-12-08T19:12:40.594Z,5.50
2022-12-08T19:15:10.198Z,5.40
2022-12-08T19:17:39.507Z,5.40
2022-12-08T19:20:07.644Z,5.40
2022-12-08T19:22:34.856Z,5.40
2022-12-08T19:25:02.193Z,5.30
2022-12-08T19:27:29.417Z,5.30
2022-12-08T19:29:58.962Z,5.30
2022-12-08T19:32:29.974Z,5.20
2022-12-08T19:34:59.441Z,5.20
2022-12-08T19:37:28.778Z,5.20
2022-12-08T19:40:14.547Z,5.10
2022-12-08T19:43:02.723Z,5.10
2022-12-08T19:45:30.280Z,5.10
2022-12-08T19:47:59.987Z,5.10
2022-12-08T19:50:39.035Z,5.10
2022-12-08T19:53:10.964Z,5.00
2022-12-08T19:55:38.853Z,5.00
2022-12-08T19:58:11.402Z,5.00
2022-12-08T20:00:45.426Z,5.00
2022-12-08T20:03:19.555Z,5.00
2022-12-08T20:05:50.719Z,4.90
2022-12-08T20:08:20.230Z,4.90
2022-12-08T20:10:51.069Z,4.90
2022-12-08T20:13:37.024Z,4.90
2022-12-08T20:16:04.406Z,4.90
2022-12-08T20:18:34.134Z,4.90
2022-12-08T20:21:03.575Z,4.90
2022-12-08T20:23:31.265Z,4.90
2022-12-08T20:26:07.292Z,4.90
2022-12-08T20:28:35.453Z,4.90
2022-12-08T20:31:02.857Z,4.90
2022-12-08T20:33:32.770Z,4.90
2022-12-08T20:36:04.380Z,4.90
2022-12-08T20:38:31.829Z,4.90
2022-12-08T20:41:01.296Z,4.80
2022-12-08T20:43:28.512Z,4.80
2022-12-08T20:45:58.275Z,4.80
2022-12-08T20:48:27.858Z,4.80
2022-12-08T20:50:57.561Z,4.80
2022-12-08T20:53:29.565Z,4.80
2022-12-08T20:55:59.257Z,4.80
2022-12-08T20:58:28.664Z,4.80
2022-12-08T21:00:56.026Z,4.80
2022-12-08T21:03:26.619Z,4.80
2022-12-08T21:06:01.324Z,4.70
2022-12-08T21:08:31.220Z,4.70
2022-12-08T21:11:00.564Z,4.70
2022-12-08T21:13:28.567Z,4.70
2022-12-08T21:15:56.302Z,4.60
2022-12-08T21:18:26.338Z,4.60
2022-12-08T21:21:05.265Z,4.60
2022-12-08T21:23:33.679Z,4.60
2022-12-08T21:26:08.788Z,4.60
2022-12-08T21:28:38.792Z,4.50
2022-12-08T21:31:07.815Z,4.50
2022-12-08T21:33:35.525Z,4.50
2022-12-08T21:36:09.507Z,4.50
2022-12-08T21:38:40.437Z,4.50
2022-12-08T21:41:35.243Z,4.40
2022-12-08T21:44:04.867Z,4.40
2022-12-08T21:46:32.201Z,4.40
2022-12-08T21:49:05.170Z,4.40
2022-12-08T21:51:33.866Z,4.40
2022-12-08T21:54:05.016Z,4.30
2022-12-08T21:56:34.601Z,4.30
2022-12-08T21:59:01.822Z,4.30
2022-12-08T22:01:29.078Z,4.40
2022-12-08T22:04:01.726Z,4.40
2022-12-08T22:06:30.100Z,4.40
2022-12-08T22:08:57.745Z,4.40
2022-12-08T22:11:30.894Z,4.40
2022-12-08T22:13:58.025Z,4.30
2022-12-08T22:16:27.808Z,4.30
2022-12-08T22:18:55.158Z,4.30
2022-12-08T22:21:24.893Z,4.30
2022-12-08T22:23:52.052Z,4.30
2022-12-08T22:26:19.299Z,4.30
2022-12-08T22:28:46.486Z,4.30
2022-12-08T22:31:20.945Z,4.30
2022-12-08T22:33:53.202Z,4.20
2022-12-08T22:36:25.399Z,4.20
2022-12-08T22:38:53.970Z,4.20
2022-12-08T22:41:22.229Z,4.20
2022-12-08T22:43:49.700Z,4.10
2022-12-08T22:46:21.732Z,4.10
2022-12-08T22:48:49.258Z,4.10
2022-12-08T22:51:16.983Z,4.10
2022-12-08T22:53:47.281Z,4.00
2022-12-08T22:56:15.729Z,4.00
2022-12-08T22:58:45.732Z,4.00
2022-12-08T23:01:39.123Z,4.00
2022-12-08T23:04:17.487Z,4.00
2022-12-08T23:06:45.545Z,3.90
2022-12-08T23:09:13.320Z,3.90
2022-12-08T23:11:40.676Z,3.90
2022-12-08T23:14:12.509Z,3.90
2022-12-08T23:16:47.719Z,3.90
2022-12-08T23:19:15.295Z,3.90
2022-12-08T23:21:44.950Z,3.90
2022-12-08T23:24:14.563Z,3.90
2022-12-08T23:26:43.317Z,3.90
2022-12-08T23:29:12.837Z,4.00
2022-12-08T23:31:40.226Z,4.00
2022-12-08T23:34:10.740Z,4.00
2022-12-08T23:36:42.881Z,4.00
2022-12-08T23:39:13.681Z,4.00
2022-12-08T23:41:42.941Z,4.10
2022-12-08T23:44:11.991Z,4.10
2022-12-08T23:46:39.278Z,4.10
2022-12-08T23:49:09.200Z,4.10
2022-12-08T23:51:36.342Z,4.10
2022-12-08T23:54:06.600Z,4.10
2022-12-08T23:56:35.872Z,4.10
2022-12-08T23:59:03.145Z,4.10
